x

Bw Pioneer Buoy - Walker Ridge 249 (42360) Wave Buoy

7:00pm - Wed 17th Dec 2014 All times are UTC.

  • Sig Wave height 1.6ft
  • Peak Period 5s
  • Wind
    7mph, 9mph gusts
  • Sea Temp 76°f
  • Air Temp 71°f
  • Sea Pressure 1021.1mb

More Historic Weather Station data

Upgrade to MSW Pro to gain access to the past 30 days of data for over 8000 Wavebouys and Weather Stations around the globe.

Join Pro

Comparision Forecast

View Surf forecast
   
Wed 12/17 7:00pm 1.6ft 5s 7 9 mph 1021.1mb 76f 71f
6:00pm 2ft 5s 9 13 mph 1022.2mb 75f 70f
5:00pm 2ft 5s 9 11 mph 1023.1mb 75f 70f
4:00pm 2ft 5s 7 11 mph 1023.7mb 75f 70f
3:00pm 2ft 6s 9 11 mph 1023.8mb 75f 70f
2:00pm 2.5ft 6s 9 11 mph 1023.5mb 75f 69f
1:00pm 2.5ft 6s 11 13 mph 1023mb 75f 70f
12:00pm 2.5ft 6s 11 13 mph 1022.7mb 75f 70f
11:00am 3ft 6s 7 13 mph 1022.2mb 75f 70f
10:00am 3ft 6s 13 18 mph 1022.7mb 75f 70f
9:00am 3ft 6s 11 16 mph 1022.7mb 75f 70f
8:00am 3ft 7s 11 16 mph 1022.6mb 75f 70f
7:00am 3.5ft 6s 11 16 mph 1023mb 75f 70f
6:00am 3.5ft 6s 9 13 mph 1023.1mb 75f 71f
5:00am 3ft 6s 9 11 mph 1023.5mb 75f 71f
4:00am 3ft 6s 9 13 mph 1023.3mb 75f 71f
3:00am 3ft 5s 11 13 mph 1023.3mb 75f 71f
2:00am 2ft 5s 13 18 mph 1023.1mb 75f 72f
1:00am 2ft 5s 9 11 mph 1022.9mb 75f 72f
12:00am 1.6ft 4s 11 13 mph 1022.5mb 75f 72f
Tue 12/16 11:00pm 1.6ft 5s 9 13 mph 1021.9mb 76f 73f
10:00pm 1.6ft 5s 9 11 mph 1021.6mb 76f 73f
9:00pm 1.6ft 5s 11 16 mph 1021.3mb 76f 73f
8:00pm 1.6ft 5s 11 16 mph 1021.3mb 76f 73f
7:00pm 1.6ft 5s 11 16 mph 1021.6mb 76f 73f
6:00pm 1.6ft 5s 11 16 mph 1022.6mb 76f 73f
5:00pm 1.6ft 6s 11 16 mph 1023.2mb 75f 73f
4:00pm 1.6ft 6s 11 16 mph 1023.6mb 75f 73f
3:00pm 1.6ft 6s 11 16 mph 1023.3mb 75f 73f
2:00pm 1.6ft 5s 11 16 mph 1022.6mb 75f 73f
1:00pm 1.6ft 5s 11 16 mph 1022mb 75f 73f
12:00pm 1.6ft 5s 11 16 mph 1021.3mb 75f 73f
11:00am 1.6ft 5s 11 16 mph 1020.6mb 75f 73f
10:00am 2ft 6s 13 18 mph 1020.3mb 75f 73f
9:00am 2ft 5s 11 16 mph 1020.4mb 75f 73f
8:00am 2ft 5s 16 18 mph 1020.4mb 75f 73f
7:00am 2ft 4s 16 18 mph 1020.5mb 75f 73f
6:00am 2ft 5s 13 18 mph 1020.4mb 75f 73f
5:00am 2ft 5s 13 20 mph 1020.3mb 75f 73f
4:00am 1.6ft 5s 13 18 mph 1020.2mb 75f 73f
3:00am 2ft 4s 16 18 mph 1019.4mb 75f 73f
2:00am 1.6ft 5s 13 16 mph 1019mb 75f 73f
1:00am 1.6ft 5s 13 16 mph 1018.5mb 75f 73f
12:00am 1.6ft 5s 11 16 mph 1018.1mb 75f 73f
Mon 12/15 11:00pm 1.6ft 5s 11 13 mph 1017.5mb 75f 74f
10:00pm 1.6ft 5s 11 16 mph 1017.1mb 76f 74f
9:00pm 1.6ft 5s 13 18 mph 1017mb 76f 74f
8:00pm 1.6ft 5s 13 16 mph 1016.9mb 76f 74f
7:00pm 1.6ft 5s 11 16 mph 1017.6mb 76f 74f
6:00pm 1.6ft 5s 13 18 mph 1018.2mb 75f 74f
5:00pm 1.6ft 5s 11 16 mph 1019mb 75f 74f
4:00pm 1.6ft 5s 11 16 mph 1019.2mb 75f 74f
3:00pm 1.3ft 5s 13 16 mph 1019.1mb 75f 74f
2:00pm 1.3ft 5s 11 13 mph 1018.5mb 75f 74f
1:00pm 1.3ft 5s 11 16 mph 1018.1mb 75f 73f
12:00pm 1.6ft 5s 9 11 mph 1017.7mb 75f 74f
11:00am 1.6ft 5s 7 9 mph 1017.2mb 75f 74f
10:00am 1.6ft 5s 9 11 mph 1017.2mb 75f 74f
9:00am 1.6ft 4s 9 13 mph 1017.5mb 75f 74f
8:00am 1.6ft 5s 11 16 mph 1017.1mb 75f 74f
7:00am 1.6ft 5s 11 13 mph 1017.4mb 75f 74f
6:00am 1.6ft 5s 13 16 mph 1017.6mb 75f 74f
5:00am 2ft 5s 13 20 mph 1017.5mb 75f 73f
4:00am 2ft 5s 18 20 mph 1017.4mb 75f 73f
3:00am 2ft 5s 16 20 mph 1018.1mb 75f 72f
2:00am 1.6ft 5s 16 20 mph 1018mb 75f 72f
1:00am 2ft 5s 16 20 mph 1017.9mb 75f 72f
12:00am 2ft 5s 16 18 mph 1017.7mb 75f 71f
Sun 12/14 11:00pm 2ft 5s 16 20 mph 1017.4mb 75f 71f
10:00pm 2ft 5s 16 20 mph 1017.2mb 75f 71f
9:00pm 2ft 5s 13 18 mph 1017.5mb 75f 71f
8:00pm 2ft 5s 11 16 mph 1018mb 75f 71f
7:00pm 2.5ft 5s 13 16 mph 1018.6mb 75f 71f
6:00pm 2ft 5s 13 18 mph 1019.6mb 75f 71f
5:00pm 2ft 5s 16 18 mph 1020.3mb 75f 71f
4:00pm 2ft 5s 13 16 mph 1021mb 75f 70f
3:00pm 2ft 5s 16 20 mph 1020.6mb 75f 70f
2:00pm 2ft 6s 13 18 mph 1020.4mb 75f 70f
1:00pm 2ft 5s 16 20 mph 1020mb 75f 69f
12:00pm 2ft 5s 13 16 mph 1019.8mb 75f 69f
11:00am 2ft 5s 11 16 mph 1019.7mb 75f 69f
10:00am 2ft 4s 13 18 mph 1019.6mb 75f 69f
9:00am 2ft 5s 13 18 mph 1019.9mb 75f 69f
8:00am 2ft 5s 13 18 mph 1020mb 75f 69f
7:00am 2.5ft 5s 11 16 mph 1020.6mb 75f 69f
6:00am 2.5ft 5s 11 16 mph 1020.8mb 75f 69f
5:00am 2.5ft 5s 11 18 mph 1021.4mb 75f 70f
4:00am 2.5ft 5s 13 18 mph 1021.8mb 75f 70f
3:00am 2.5ft 5s 13 20 mph 1022mb 75f 70f
2:00am 2.5ft 5s 16 20 mph 1021.8mb 75f 70f
1:00am 2.5ft 5s 18 22 mph 1021.6mb 75f 70f
12:00am 2.5ft 4s 18 22 mph 1021.5mb 75f 70f
Sat 12/13 11:00pm 2.5ft 5s 13 18 mph 1021.4mb 75f 70f
10:00pm 2.5ft 5s 13 20 mph 1021.5mb - 70f
9:00pm 2.5ft 5s 13 20 mph 1021.5mb 75f 70f